»·PEaware :: N2842Y KVNY-KSNA

N2842Y :: KVNY-KSNA

FLIGHT INFORMATION

Flight Status: Arrived
Operator: Privately registered:
United States
More flights under this callsign
Pilot: Cody B. (17747)
Aircraft: CESSNA 172 SKYHAWK
(C172)
More flights by this aircraft type
Origin: KVNY Van Nuys
United States
Destination: KSNA John Wayne-Orange Co
United States
More flights between these airports :: More routes between these airports
Route: +
File this flight plan on PilotEdge
Remarks: CAT10
Altitude:
(Current/Filed)
5,500ft
Speed:
(Current/Filed)
115kts
Departed: 16-Jun-18 12:40 PM
Arrived: 16-Jun-18 01:42 PM
Distance/Time
Traveled:
44nm/1:02
Distance/Time
To Go:
Arrived

Flight Plot

Page will automatically refresh every two minutes.


Map Options




Map Legend


Flown Route
Filed Route
Departure Airport
Arrival Airport
Navaid (VOR, NDB)
Fix

Horizontal Profiles

Position Reports

Time Latitude Longitude Heading Altitude Ground
Speed
16-Jun-18 12:39 34.215770 -118.490891 175 806ft 63kts
16-Jun-18 12:40 34.194845 -118.488629 175 1509ft 77kts
16-Jun-18 12:41 34.175075 -118.492683 202 2290ft 73kts
16-Jun-18 12:42 34.155926 -118.499466 188 3022ft 72kts
16-Jun-18 12:43 34.135320 -118.504231 193 3660ft 88kts
16-Jun-18 12:44 34.112786 -118.510272 194 4519ft 81kts
16-Jun-18 12:45 34.093114 -118.504087 164 5287ft 80kts
16-Jun-18 12:46 34.068315 -118.495752 171 5657ft 108kts
16-Jun-18 12:47 34.059099 -118.518093 331 5421ft 100kts
16-Jun-18 12:48 34.083866 -118.512292 15 5280ft 104kts
16-Jun-18 12:49 34.110634 -118.504678 10 4739ft 94kts
16-Jun-18 12:50 34.135893 -118.502123 356 4250ft 86kts
16-Jun-18 12:51 34.157919 -118.504373 356 3834ft 86kts
16-Jun-18 12:53 34.218334 -118.494297 175 806ft 0kts
16-Jun-18 12:54 34.218334 -118.494297 175 806ft 0kts
16-Jun-18 12:55 34.218334 -118.494297 175 806ft 0kts
16-Jun-18 12:56 34.218334 -118.494297 175 806ft 0kts
16-Jun-18 12:57 34.218334 -118.494297 175 806ft 0kts
16-Jun-18 12:58 34.218166 -118.494276 174 806ft 1kts
16-Jun-18 12:59 34.217359 -118.493952 110 806ft 4kts
16-Jun-18 13:00 34.217509 -118.492274 356 806ft 8kts
16-Jun-18 13:01 34.218673 -118.492136 43 806ft 0kts
16-Jun-18 13:02 34.218262 -118.491185 172 806ft 14kts
16-Jun-18 13:03 34.201746 -118.489012 171 1133ft 84kts
16-Jun-18 13:04 34.180637 -118.494209 216 1986ft 85kts
16-Jun-18 13:05 34.171881 -118.517458 266 2974ft 73kts
16-Jun-18 13:06 34.170381 -118.543404 268 3740ft 81kts
16-Jun-18 13:07 34.176750 -118.560738 59 4493ft 76kts
16-Jun-18 13:08 34.175444 -118.538155 93 5223ft 67kts
16-Jun-18 13:09 34.173907 -118.511011 143 5566ft 103kts
16-Jun-18 13:10 34.158056 -118.533459 268 5646ft 104kts
16-Jun-18 13:11 34.144626 -118.545573 125 5463ft 85kts
16-Jun-18 13:12 34.124373 -118.520231 153 5481ft 121kts
16-Jun-18 13:13 34.093478 -118.502059 157 5482ft 126kts
16-Jun-18 13:14 34.059880 -118.490942 163 5492ft 126kts
16-Jun-18 13:15 34.027261 -118.477332 153 5583ft 122kts
16-Jun-18 13:16 33.998694 -118.454818 138 5624ft 124kts
16-Jun-18 13:17 33.975896 -118.425873 134 5562ft 113kts
16-Jun-18 13:18 33.952878 -118.398445 131 5481ft 124kts
16-Jun-18 13:19 33.928806 -118.368295 134 5478ft 118kts
16-Jun-18 13:20 33.908272 -118.343410 134 5479ft 98kts
16-Jun-18 13:21 33.889912 -118.321139 134 5480ft 94kts
16-Jun-18 13:22 33.872766 -118.297791 134 5480ft 92kts
16-Jun-18 13:23 33.854665 -118.275856 134 5480ft 92kts
16-Jun-18 13:24 33.836626 -118.253712 127 5477ft 93kts
16-Jun-18 13:25 33.832549 -118.225653 70 5384ft 98kts
16-Jun-18 13:26 33.845516 -118.197057 77 5307ft 100kts
16-Jun-18 13:27 33.835604 -118.168874 124 5288ft 97kts
16-Jun-18 13:28 33.822364 -118.141913 111 5341ft 90kts
16-Jun-18 13:29 33.814346 -118.112360 104 5374ft 98kts
16-Jun-18 13:30 33.808753 -118.080374 99 5489ft 97kts
16-Jun-18 13:31 33.802851 -118.048477 105 5595ft 96kts
16-Jun-18 13:32 33.794404 -118.017023 113 5494ft 100kts
16-Jun-18 13:33 33.780520 -117.990778 134 4870ft 93kts
16-Jun-18 13:34 33.762217 -117.969099 135 3965ft 91kts
16-Jun-18 13:35 33.745892 -117.947964 131 3131ft 88kts
16-Jun-18 13:36 33.734599 -117.923144 101 2266ft 87kts
16-Jun-18 13:37 33.730297 -117.894779 100 1430ft 85kts
16-Jun-18 13:38 33.722219 -117.872282 119 1057ft 67kts
16-Jun-18 13:39 33.709772 -117.855263 154 843ft 71kts
16-Jun-18 13:40 33.692131 -117.858419 206 360ft 66kts
16-Jun-18 13:41 33.676963 -117.867996 209 60ft 55kts
16-Jun-18 13:42 33.674234 -117.870809 303 60ft 0kts
16-Jun-18 13:43 33.674711 -117.870934 26 60ft 1kts
16-Jun-18 13:44 33.675600 -117.871116 33 60ft 0kts

Navigation Log

Ident Type
1. KVNY Airport
2. KSNA Airport